KCOF/COF METAR and TAF weather

Enter ICAO airport designator
Station Type Date Time Source
KCOF METAR 2020/12/05 04:56 UTC NOAA

KCOF 050456Z AUTO 23005KT 10SM CLR 19/14 A3006 RMK AO2 SLP184 T01930143 402490181 $


Station Type Date Time Source
KCOF Decoded METAR 2020/12/05 04:56 UTC NOAA

Cocoa / Patrick Air Force Base, FL, United States (KCOF) 28-14N 080-36W 3M
Dec 04, 2020 - 11:56 PM EST / 2020.12.05 0456 UTC
Wind: from the SW (230 degrees) at 6 MPH (5 KT):0
Visibility: 10 mile(s):0
Sky conditions: clear
Temperature: 66.7 F (19.3 C)
Dew Point: 57.7 F (14.3 C)
Relative Humidity: 72%
Pressure (altimeter): 30.06 in. Hg (1017 hPa)
ob: KCOF 050456Z AUTO 23005KT 10SM CLR 19/14 A3006 RMK AO2 SLP184 T01930143 402490181
cycle: 5

Station Type Date Time Source
KCOF TAF 2020/12/05 03:06 UTC NOAA

TAF KCOF 050300Z 0503/0609 22007KT 9999 SCT020 BKN100 QNH3001INS
BECMG 0512/0513 26010KT 9999 BKN018 QNH3000INS
BECMG 0523/0524 35010KT 9999 SCT020 QNH3002INS TX25/0519Z TN16/0511Z LAST NO
AMDS AFT 0505 NEXT 0511

Example: see airport list